sensor_id;sensor_type;location;lat;lon;timestamp;temperature;humidity
80258;DHT22;69565;37.974;23.708;2023-10-08T00:02:05;25.30;41.80
80258;DHT22;69565;37.974;23.708;2023-10-08T00:04:33;25.30;41.90
80258;DHT22;69565;37.974;23.708;2023-10-08T00:07:03;25.30;41.90
80258;DHT22;69565;37.974;23.708;2023-10-08T00:09:34;25.30;41.90
80258;DHT22;69565;37.974;23.708;2023-10-08T00:12:01;25.30;41.90
80258;DHT22;69565;37.974;23.708;2023-10-08T00:14:27;25.30;41.90
80258;DHT22;69565;37.974;23.708;2023-10-08T00:16:53;25.30;42.00
80258;DHT22;69565;37.974;23.708;2023-10-08T00:19:19;25.30;41.90
80258;DHT22;69565;37.974;23.708;2023-10-08T00:21:46;25.30;41.90
80258;DHT22;69565;37.974;23.708;2023-10-08T00:24:13;25.30;42.00
80258;DHT22;69565;37.974;23.708;2023-10-08T00:26:40;25.30;42.00
80258;DHT22;69565;37.974;23.708;2023-10-08T00:29:07;25.30;42.00
80258;DHT22;69565;37.974;23.708;2023-10-08T00:31:44;25.30;42.00
80258;DHT22;69565;37.974;23.708;2023-10-08T00:34:14;25.30;42.00
80258;DHT22;69565;37.974;23.708;2023-10-08T00:36:41;25.30;42.00
80258;DHT22;69565;37.974;23.708;2023-10-08T00:39:08;25.30;42.00
80258;DHT22;69565;37.974;23.708;2023-10-08T00:41:40;25.30;42.00
80258;DHT22;69565;37.974;23.708;2023-10-08T00:44:08;25.30;42.10
80258;DHT22;69565;37.974;23.708;2023-10-08T00:46:37;25.30;42.10
80258;DHT22;69565;37.974;23.708;2023-10-08T00:49:17;25.20;42.10
80258;DHT22;69565;37.974;23.708;2023-10-08T00:52:04;25.20;42.10
80258;DHT22;69565;37.974;23.708;2023-10-08T00:54:34;25.20;42.10
80258;DHT22;69565;37.974;23.708;2023-10-08T00:57:13;25.20;42.10
80258;DHT22;69565;37.974;23.708;2023-10-08T00:59:43;25.20;42.10
80258;DHT22;69565;37.974;23.708;2023-10-08T01:02:15;25.20;42.20
80258;DHT22;69565;37.974;23.708;2023-10-08T01:04:45;25.20;42.20
80258;DHT22;69565;37.974;23.708;2023-10-08T01:07:14;25.20;42.10
80258;DHT22;69565;37.974;23.708;2023-10-08T01:09:44;25.20;42.20
80258;DHT22;69565;37.974;23.708;2023-10-08T01:12:22;25.20;42.20
80258;DHT22;69565;37.974;23.708;2023-10-08T01:15:00;25.20;42.20
80258;DHT22;69565;37.974;23.708;2023-10-08T01:17:52;25.20;42.30
80258;DHT22;69565;37.974;23.708;2023-10-08T01:20:24;25.20;42.30
80258;DHT22;69565;37.974;23.708;2023-10-08T01:23:10;25.20;42.30
80258;DHT22;69565;37.974;23.708;2023-10-08T01:25:41;25.20;42.30
80258;DHT22;69565;37.974;23.708;2023-10-08T01:28:09;25.20;42.30
80258;DHT22;69565;37.974;23.708;2023-10-08T01:30:43;25.10;42.30
80258;DHT22;69565;37.974;23.708;2023-10-08T01:33:13;25.10;42.30
80258;DHT22;69565;37.974;23.708;2023-10-08T01:35:41;25.10;42.30
80258;DHT22;69565;37.974;23.708;2023-10-08T01:38:08;25.10;42.30
80258;DHT22;69565;37.974;23.708;2023-10-08T01:40:39;25.10;42.30
80258;DHT22;69565;37.974;23.708;2023-10-08T01:43:05;25.10;42.40
80258;DHT22;69565;37.974;23.708;2023-10-08T01:45:31;25.10;42.40
80258;DHT22;69565;37.974;23.708;2023-10-08T01:47:58;25.10;42.30
80258;DHT22;69565;37.974;23.708;2023-10-08T01:50:23;25.10;42.40
80258;DHT22;69565;37.974;23.708;2023-10-08T01:52:55;25.10;42.40
80258;DHT22;69565;37.974;23.708;2023-10-08T01:55:21;25.10;42.40
80258;DHT22;69565;37.974;23.708;2023-10-08T01:57:49;25.10;42.50
80258;DHT22;69565;37.974;23.708;2023-10-08T02:00:17;25.10;42.50
80258;DHT22;69565;37.974;23.708;2023-10-08T02:02:46;25.10;42.40
80258;DHT22;69565;37.974;23.708;2023-10-08T02:05:12;25.10;42.50
80258;DHT22;69565;37.974;23.708;2023-10-08T02:07:41;25.10;42.50
80258;DHT22;69565;37.974;23.708;2023-10-08T02:10:11;25.10;42.50
80258;DHT22;69565;37.974;23.708;2023-10-08T02:12:38;25.00;42.40
80258;DHT22;69565;37.974;23.708;2023-10-08T02:15:04;25.10;42.50
80258;DHT22;69565;37.974;23.708;2023-10-08T02:17:32;25.10;42.50
80258;DHT22;69565;37.974;23.708;2023-10-08T02:19:58;25.10;42.60
80258;DHT22;69565;37.974;23.708;2023-10-08T02:22:24;25.10;42.50
80258;DHT22;69565;37.974;23.708;2023-10-08T02:24:49;25.10;42.50
80258;DHT22;69565;37.974;23.708;2023-10-08T02:27:16;25.00;42.50
80258;DHT22;69565;37.974;23.708;2023-10-08T02:29:42;25.10;42.50
80258;DHT22;69565;37.974;23.708;2023-10-08T02:32:08;25.00;42.50
80258;DHT22;69565;37.974;23.708;2023-10-08T02:34:35;25.00;42.50
80258;DHT22;69565;37.974;23.708;2023-10-08T02:37:03;25.00;42.50
80258;DHT22;69565;37.974;23.708;2023-10-08T02:39:29;25.00;42.50
80258;DHT22;69565;37.974;23.708;2023-10-08T02:41:58;25.00;42.50
80258;DHT22;69565;37.974;23.708;2023-10-08T02:44:27;25.00;42.50
80258;DHT22;69565;37.974;23.708;2023-10-08T02:46:53;25.00;42.50
80258;DHT22;69565;37.974;23.708;2023-10-08T02:49:21;25.00;42.60
80258;DHT22;69565;37.974;23.708;2023-10-08T02:51:50;25.00;42.60
80258;DHT22;69565;37.974;23.708;2023-10-08T02:54:20;25.00;42.60
80258;DHT22;69565;37.974;23.708;2023-10-08T02:56:50;24.90;42.60
80258;DHT22;69565;37.974;23.708;2023-10-08T02:59:33;24.90;43.70
80258;DHT22;69565;37.974;23.708;2023-10-08T03:02:06;24.90;42.60
80258;DHT22;69565;37.974;23.708;2023-10-08T03:04:40;24.90;42.70
80258;DHT22;69565;37.974;23.708;2023-10-08T03:07:07;24.90;42.60
80258;DHT22;69565;37.974;23.708;2023-10-08T03:09:37;24.90;42.70
80258;DHT22;69565;37.974;23.708;2023-10-08T03:12:07;24.90;42.70
80258;DHT22;69565;37.974;23.708;2023-10-08T03:14:35;24.90;42.70
80258;DHT22;69565;37.974;23.708;2023-10-08T03:17:14;24.90;42.70
80258;DHT22;69565;37.974;23.708;2023-10-08T03:19:46;24.90;42.70
80258;DHT22;69565;37.974;23.708;2023-10-08T03:22:12;24.90;42.70
80258;DHT22;69565;37.974;23.708;2023-10-08T03:24:38;24.90;42.70
80258;DHT22;69565;37.974;23.708;2023-10-08T03:27:05;24.90;42.80
80258;DHT22;69565;37.974;23.708;2023-10-08T03:29:46;24.90;42.80
80258;DHT22;69565;37.974;23.708;2023-10-08T03:32:14;24.90;42.80
80258;DHT22;69565;37.974;23.708;2023-10-08T03:34:49;24.90;42.80
80258;DHT22;69565;37.974;23.708;2023-10-08T03:37:21;24.90;42.80
80258;DHT22;69565;37.974;23.708;2023-10-08T03:39:50;24.90;42.80
80258;DHT22;69565;37.974;23.708;2023-10-08T03:42:21;24.90;42.80
80258;DHT22;69565;37.974;23.708;2023-10-08T03:44:48;24.90;42.80
80258;DHT22;69565;37.974;23.708;2023-10-08T03:47:18;24.90;42.80
80258;DHT22;69565;37.974;23.708;2023-10-08T03:49:48;24.80;42.80
80258;DHT22;69565;37.974;23.708;2023-10-08T03:52:16;24.80;42.90
80258;DHT22;69565;37.974;23.708;2023-10-08T03:54:44;24.90;43.00
80258;DHT22;69565;37.974;23.708;2023-10-08T03:57:30;24.80;43.00
80258;DHT22;69565;37.974;23.708;2023-10-08T04:00:08;24.80;43.00
80258;DHT22;69565;37.974;23.708;2023-10-08T04:02:38;24.80;43.90
80258;DHT22;69565;37.974;23.708;2023-10-08T04:05:07;24.80;42.90
80258;DHT22;69565;37.974;23.708;2023-10-08T04:07:53;24.80;43.00
80258;DHT22;69565;37.974;23.708;2023-10-08T04:10:30;24.80;44.00
80258;DHT22;69565;37.974;23.708;2023-10-08T04:13:24;24.80;43.00
80258;DHT22;69565;37.974;23.708;2023-10-08T04:15:50;24.80;42.90
80258;DHT22;69565;37.974;23.708;2023-10-08T04:18:16;24.80;43.00
80258;DHT22;69565;37.974;23.708;2023-10-08T04:20:42;24.80;42.90
80258;DHT22;69565;37.974;23.708;2023-10-08T04:23:26;24.80;43.00
80258;DHT22;69565;37.974;23.708;2023-10-08T04:25:52;24.80;43.00
80258;DHT22;69565;37.974;23.708;2023-10-08T04:28:21;24.80;43.00
80258;DHT22;69565;37.974;23.708;2023-10-08T04:30:47;24.80;43.00
80258;DHT22;69565;37.974;23.708;2023-10-08T04:33:14;24.80;43.00
80258;DHT22;69565;37.974;23.708;2023-10-08T04:35:44;24.80;43.00
80258;DHT22;69565;37.974;23.708;2023-10-08T04:38:26;24.80;43.00
80258;DHT22;69565;37.974;23.708;2023-10-08T04:40:52;24.80;43.00
80258;DHT22;69565;37.974;23.708;2023-10-08T04:43:20;24.80;43.00
80258;DHT22;69565;37.974;23.708;2023-10-08T04:46:06;24.80;43.00
80258;DHT22;69565;37.974;23.708;2023-10-08T04:48:52;24.80;43.00
80258;DHT22;69565;37.974;23.708;2023-10-08T04:51:18;24.80;43.00
80258;DHT22;69565;37.974;23.708;2023-10-08T04:53:47;24.80;43.00
80258;DHT22;69565;37.974;23.708;2023-10-08T04:56:14;24.80;43.00
80258;DHT22;69565;37.974;23.708;2023-10-08T04:58:47;24.80;43.00
80258;DHT22;69565;37.974;23.708;2023-10-08T05:01:14;24.80;43.00
80258;DHT22;69565;37.974;23.708;2023-10-08T05:03:54;24.80;43.00
80258;DHT22;69565;37.974;23.708;2023-10-08T05:06:27;24.80;43.00
80258;DHT22;69565;37.974;23.708;2023-10-08T05:09:03;24.80;43.00
80258;DHT22;69565;37.974;23.708;2023-10-08T05:11:48;24.80;43.00
80258;DHT22;69565;37.974;23.708;2023-10-08T05:14:18;24.80;43.00
80258;DHT22;69565;37.974;23.708;2023-10-08T05:16:57;24.80;43.00
80258;DHT22;69565;37.974;23.708;2023-10-08T05:19:29;24.80;42.90
80258;DHT22;69565;37.974;23.708;2023-10-08T05:22:10;24.90;42.90
80258;DHT22;69565;37.974;23.708;2023-10-08T05:24:56;24.90;43.00
80258;DHT22;69565;37.974;23.708;2023-10-08T05:27:42;24.90;42.90
80258;DHT22;69565;37.974;23.708;2023-10-08T05:30:14;24.90;42.80
80258;DHT22;69565;37.974;23.708;2023-10-08T05:32:58;24.90;42.80
80258;DHT22;69565;37.974;23.708;2023-10-08T05:35:41;24.90;42.70
80258;DHT22;69565;37.974;23.708;2023-10-08T05:38:17;25.00;42.80
80258;DHT22;69565;37.974;23.708;2023-10-08T05:41:04;25.00;42.70
80258;DHT22;69565;37.974;23.708;2023-10-08T05:46:05;25.10;42.50
80258;DHT22;69565;37.974;23.708;2023-10-08T05:48:47;25.10;42.50
80258;DHT22;69565;37.974;23.708;2023-10-08T05:51:36;25.20;42.50
80258;DHT22;69565;37.974;23.708;2023-10-08T05:54:12;25.20;42.30
80258;DHT22;69565;37.974;23.708;2023-10-08T05:59:44;25.30;42.20
80258;DHT22;69565;37.974;23.708;2023-10-08T06:02:25;25.30;42.50
80258;DHT22;69565;37.974;23.708;2023-10-08T06:04:56;25.30;42.00
80258;DHT22;69565;37.974;23.708;2023-10-08T06:10:31;25.40;42.00
80258;DHT22;69565;37.974;23.708;2023-10-08T06:15:46;25.50;41.80
80258;DHT22;69565;37.974;23.708;2023-10-08T06:18:12;25.50;41.70
80258;DHT22;69565;37.974;23.708;2023-10-08T06:20:41;25.50;41.70
80258;DHT22;69565;37.974;23.708;2023-10-08T06:23:14;25.60;41.60
80258;DHT22;69565;37.974;23.708;2023-10-08T06:25:46;25.60;41.60
80258;DHT22;69565;37.974;23.708;2023-10-08T06:28:13;25.70;41.60
80258;DHT22;69565;37.974;23.708;2023-10-08T06:30:40;25.70;41.50
80258;DHT22;69565;37.974;23.708;2023-10-08T06:33:07;25.70;41.30
80258;DHT22;69565;37.974;23.708;2023-10-08T06:35:33;25.80;41.30
80258;DHT22;69565;37.974;23.708;2023-10-08T06:37:59;25.80;41.30
80258;DHT22;69565;37.974;23.708;2023-10-08T06:40:27;25.80;41.20
80258;DHT22;69565;37.974;23.708;2023-10-08T06:43:05;25.80;41.10
80258;DHT22;69565;37.974;23.708;2023-10-08T06:45:40;25.90;41.10
80258;DHT22;69565;37.974;23.708;2023-10-08T06:48:07;25.90;41.00
80258;DHT22;69565;37.974;23.708;2023-10-08T06:50:34;25.90;40.90
80258;DHT22;69565;37.974;23.708;2023-10-08T06:53:00;26.00;40.90
80258;DHT22;69565;37.974;23.708;2023-10-08T06:55:32;26.00;40.90
80258;DHT22;69565;37.974;23.708;2023-10-08T06:57:59;26.00;40.90
80258;DHT22;69565;37.974;23.708;2023-10-08T07:00:26;26.00;40.90
80258;DHT22;69565;37.974;23.708;2023-10-08T07:03:10;26.00;40.80
80258;DHT22;69565;37.974;23.708;2023-10-08T07:05:37;26.00;40.80
80258;DHT22;69565;37.974;23.708;2023-10-08T07:08:07;26.10;40.80
80258;DHT22;69565;37.974;23.708;2023-10-08T07:10:33;26.10;40.80
80258;DHT22;69565;37.974;23.708;2023-10-08T07:13:02;26.10;40.60
80258;DHT22;69565;37.974;23.708;2023-10-08T07:15:29;26.10;40.60
80258;DHT22;69565;37.974;23.708;2023-10-08T07:17:56;26.10;40.60
80258;DHT22;69565;37.974;23.708;2023-10-08T07:20:22;26.10;40.60
80258;DHT22;69565;37.974;23.708;2023-10-08T07:22:48;26.10;40.50
80258;DHT22;69565;37.974;23.708;2023-10-08T07:25:21;26.20;40.60
80258;DHT22;69565;37.974;23.708;2023-10-08T07:27:47;26.20;40.50
80258;DHT22;69565;37.974;23.708;2023-10-08T07:30:13;26.20;40.50
80258;DHT22;69565;37.974;23.708;2023-10-08T07:32:52;26.20;40.50
80258;DHT22;69565;37.974;23.708;2023-10-08T07:35:20;26.20;40.40
80258;DHT22;69565;37.974;23.708;2023-10-08T07:37:46;26.20;40.40
80258;DHT22;69565;37.974;23.708;2023-10-08T07:40:15;26.20;40.40
80258;DHT22;69565;37.974;23.708;2023-10-08T07:42:41;26.20;40.40
80258;DHT22;69565;37.974;23.708;2023-10-08T07:45:07;26.20;40.40
80258;DHT22;69565;37.974;23.708;2023-10-08T07:47:33;26.20;40.20
80258;DHT22;69565;37.974;23.708;2023-10-08T07:49:59;26.20;40.20
80258;DHT22;69565;37.974;23.708;2023-10-08T07:52:25;26.20;40.20
80258;DHT22;69565;37.974;23.708;2023-10-08T07:54:51;26.20;40.20
80258;DHT22;69565;37.974;23.708;2023-10-08T07:57:18;26.30;40.30
80258;DHT22;69565;37.974;23.708;2023-10-08T07:59:51;26.30;40.20
80258;DHT22;69565;37.974;23.708;2023-10-08T08:02:20;26.30;40.20
80258;DHT22;69565;37.974;23.708;2023-10-08T08:04:52;26.30;40.10
80258;DHT22;69565;37.974;23.708;2023-10-08T08:07:19;26.30;40.10
80258;DHT22;69565;37.974;23.708;2023-10-08T08:09:50;26.30;40.10
80258;DHT22;69565;37.974;23.708;2023-10-08T08:12:24;26.30;40.10
80258;DHT22;69565;37.974;23.708;2023-10-08T08:14:58;26.30;40.10
80258;DHT22;69565;37.974;23.708;2023-10-08T08:17:24;26.30;40.10
80258;DHT22;69565;37.974;23.708;2023-10-08T08:19:51;26.30;40.10
80258;DHT22;69565;37.974;23.708;2023-10-08T08:22:19;26.30;40.00
80258;DHT22;69565;37.974;23.708;2023-10-08T08:24:54;26.40;40.10
80258;DHT22;69565;37.974;23.708;2023-10-08T08:27:43;26.40;40.00
80258;DHT22;69565;37.974;23.708;2023-10-08T08:30:12;26.40;40.00
80258;DHT22;69565;37.974;23.708;2023-10-08T08:32:42;26.30;40.00
80258;DHT22;69565;37.974;23.708;2023-10-08T08:35:13;26.40;40.00
80258;DHT22;69565;37.974;23.708;2023-10-08T08:37:42;26.40;40.10
80258;DHT22;69565;37.974;23.708;2023-10-08T08:40:09;26.40;40.00
80258;DHT22;69565;37.974;23.708;2023-10-08T08:42:36;26.40;40.00
80258;DHT22;69565;37.974;23.708;2023-10-08T08:45:06;26.40;39.90
80258;DHT22;69565;37.974;23.708;2023-10-08T08:47:38;26.40;39.90
80258;DHT22;69565;37.974;23.708;2023-10-08T08:50:07;26.40;39.90
80258;DHT22;69565;37.974;23.708;2023-10-08T08:52:40;26.40;39.90
80258;DHT22;69565;37.974;23.708;2023-10-08T08:55:07;26.40;39.90
80258;DHT22;69565;37.974;23.708;2023-10-08T08:57:43;26.40;39.90
80258;DHT22;69565;37.974;23.708;2023-10-08T09:00:14;26.40;39.80
80258;DHT22;69565;37.974;23.708;2023-10-08T09:02:41;26.40;39.80
80258;DHT22;69565;37.974;23.708;2023-10-08T09:05:07;26.40;39.80
80258;DHT22;69565;37.974;23.708;2023-10-08T09:08:00;26.40;39.80
80258;DHT22;69565;37.974;23.708;2023-10-08T09:10:30;26.40;39.80
80258;DHT22;69565;37.974;23.708;2023-10-08T09:13:03;26.40;39.80
80258;DHT22;69565;37.974;23.708;2023-10-08T09:15:30;26.40;39.80
80258;DHT22;69565;37.974;23.708;2023-10-08T09:17:58;26.40;39.80
80258;DHT22;69565;37.974;23.708;2023-10-08T09:20:27;26.40;39.80
80258;DHT22;69565;37.974;23.708;2023-10-08T09:23:07;26.40;39.80
80258;DHT22;69565;37.974;23.708;2023-10-08T09:25:34;26.40;39.80
80258;DHT22;69565;37.974;23.708;2023-10-08T09:28:00;26.50;39.90
80258;DHT22;69565;37.974;23.708;2023-10-08T09:30:29;26.40;39.80
80258;DHT22;69565;37.974;23.708;2023-10-08T09:32:55;26.40;39.80
80258;DHT22;69565;37.974;23.708;2023-10-08T09:35:22;26.40;39.70
80258;DHT22;69565;37.974;23.708;2023-10-08T09:37:50;26.50;39.80
80258;DHT22;69565;37.974;23.708;2023-10-08T09:40:17;26.40;39.70
80258;DHT22;69565;37.974;23.708;2023-10-08T09:42:47;26.40;39.70
80258;DHT22;69565;37.974;23.708;2023-10-08T09:45:13;26.40;39.70
80258;DHT22;69565;37.974;23.708;2023-10-08T09:47:42;26.50;39.70
80258;DHT22;69565;37.974;23.708;2023-10-08T09:50:10;26.50;39.70
80258;DHT22;69565;37.974;23.708;2023-10-08T09:53:09;26.50;39.70
80258;DHT22;69565;37.974;23.708;2023-10-08T09:55:56;26.40;39.50
80258;DHT22;69565;37.974;23.708;2023-10-08T09:58:22;26.40;39.60
80258;DHT22;69565;37.974;23.708;2023-10-08T10:00:50;26.40;39.60
80258;DHT22;69565;37.974;23.708;2023-10-08T10:03:18;26.50;39.60
80258;DHT22;69565;37.974;23.708;2023-10-08T10:05:45;26.50;39.60
80258;DHT22;69565;37.974;23.708;2023-10-08T10:08:14;26.50;39.60
80258;DHT22;69565;37.974;23.708;2023-10-08T10:10:40;26.50;39.60
80258;DHT22;69565;37.974;23.708;2023-10-08T10:13:13;26.50;39.60
80258;DHT22;69565;37.974;23.708;2023-10-08T10:15:42;26.50;39.60
80258;DHT22;69565;37.974;23.708;2023-10-08T10:18:28;26.50;39.50
80258;DHT22;69565;37.974;23.708;2023-10-08T10:23:45;26.50;39.40
80258;DHT22;69565;37.974;23.708;2023-10-08T10:31:45;26.50;39.50
80258;DHT22;69565;37.974;23.708;2023-10-08T10:34:16;26.50;39.40
80258;DHT22;69565;37.974;23.708;2023-10-08T10:36:43;26.50;39.40
80258;DHT22;69565;37.974;23.708;2023-10-08T10:39:13;26.50;39.50
80258;DHT22;69565;37.974;23.708;2023-10-08T10:41:48;26.50;39.40
80258;DHT22;69565;37.974;23.708;2023-10-08T10:44:15;26.50;39.40
80258;DHT22;69565;37.974;23.708;2023-10-08T10:46:46;26.50;39.40
80258;DHT22;69565;37.974;23.708;2023-10-08T10:49:18;26.50;39.30
80258;DHT22;69565;37.974;23.708;2023-10-08T10:51:51;26.50;39.30
80258;DHT22;69565;37.974;23.708;2023-10-08T10:54:26;26.50;39.30
80258;DHT22;69565;37.974;23.708;2023-10-08T10:57:01;26.50;39.30
80258;DHT22;69565;37.974;23.708;2023-10-08T10:59:32;26.50;39.30
80258;DHT22;69565;37.974;23.708;2023-10-08T11:02:04;26.50;39.30
80258;DHT22;69565;37.974;23.708;2023-10-08T11:04:34;26.50;39.30
80258;DHT22;69565;37.974;23.708;2023-10-08T11:07:20;26.50;39.20
80258;DHT22;69565;37.974;23.708;2023-10-08T11:09:50;26.60;39.30
80258;DHT22;69565;37.974;23.708;2023-10-08T11:12:18;26.50;39.20
80258;DHT22;69565;37.974;23.708;2023-10-08T11:14:49;26.50;39.20
80258;DHT22;69565;37.974;23.708;2023-10-08T11:17:26;26.50;39.30
80258;DHT22;69565;37.974;23.708;2023-10-08T11:19:54;26.60;39.20
80258;DHT22;69565;37.974;23.708;2023-10-08T11:22:19;26.50;39.20
80258;DHT22;69565;37.974;23.708;2023-10-08T11:24:48;26.60;39.20
80258;DHT22;69565;37.974;23.708;2023-10-08T11:27:19;26.50;39.20
80258;DHT22;69565;37.974;23.708;2023-10-08T11:29:55;26.60;39.20
80258;DHT22;69565;37.974;23.708;2023-10-08T11:32:26;26.60;39.20
80258;DHT22;69565;37.974;23.708;2023-10-08T11:37:32;26.60;39.20
80258;DHT22;69565;37.974;23.708;2023-10-08T11:40:02;26.60;39.10
80258;DHT22;69565;37.974;23.708;2023-10-08T11:42:38;26.60;40.20
80258;DHT22;69565;37.974;23.708;2023-10-08T11:45:05;26.60;39.10
80258;DHT22;69565;37.974;23.708;2023-10-08T11:47:52;26.60;39.10
80258;DHT22;69565;37.974;23.708;2023-10-08T11:50:28;26.60;39.10
80258;DHT22;69565;37.974;23.708;2023-10-08T11:52:58;26.60;39.10
80258;DHT22;69565;37.974;23.708;2023-10-08T11:55:28;26.60;39.10
80258;DHT22;69565;37.974;23.708;2023-10-08T11:57:55;26.60;39.10
80258;DHT22;69565;37.974;23.708;2023-10-08T12:00:21;26.60;39.10
80258;DHT22;69565;37.974;23.708;2023-10-08T12:02:53;26.60;39.10
80258;DHT22;69565;37.974;23.708;2023-10-08T12:05:23;26.60;39.10
80258;DHT22;69565;37.974;23.708;2023-10-08T12:07:53;26.60;39.10
80258;DHT22;69565;37.974;23.708;2023-10-08T12:10:23;26.60;39.10
80258;DHT22;69565;37.974;23.708;2023-10-08T12:12:53;26.60;39.10
80258;DHT22;69565;37.974;23.708;2023-10-08T12:15:22;26.60;39.10
80258;DHT22;69565;37.974;23.708;2023-10-08T12:17:52;26.60;39.10
80258;DHT22;69565;37.974;23.708;2023-10-08T12:20:39;26.60;39.10
80258;DHT22;69565;37.974;23.708;2023-10-08T12:23:09;26.60;39.00
80258;DHT22;69565;37.974;23.708;2023-10-08T12:25:51;26.60;39.10
80258;DHT22;69565;37.974;23.708;2023-10-08T12:28:20;26.60;39.00
80258;DHT22;69565;37.974;23.708;2023-10-08T12:30:46;26.60;39.10
80258;DHT22;69565;37.974;23.708;2023-10-08T12:33:12;26.60;39.00
80258;DHT22;69565;37.974;23.708;2023-10-08T12:35:44;26.60;39.10
80258;DHT22;69565;37.974;23.708;2023-10-08T12:38:10;26.60;39.00
80258;DHT22;69565;37.974;23.708;2023-10-08T12:40:36;26.60;39.10
80258;DHT22;69565;37.974;23.708;2023-10-08T12:43:13;26.60;39.00
80258;DHT22;69565;37.974;23.708;2023-10-08T12:45:41;26.60;39.10
80258;DHT22;69565;37.974;23.708;2023-10-08T12:48:10;26.60;39.00
80258;DHT22;69565;37.974;23.708;2023-10-08T12:50:39;26.60;39.00
80258;DHT22;69565;37.974;23.708;2023-10-08T12:53:11;26.60;39.00
80258;DHT22;69565;37.974;23.708;2023-10-08T12:55:38;26.60;39.00
80258;DHT22;69565;37.974;23.708;2023-10-08T12:58:07;26.60;39.10
80258;DHT22;69565;37.974;23.708;2023-10-08T13:00:36;26.60;39.10
80258;DHT22;69565;37.974;23.708;2023-10-08T13:03:15;26.60;39.00
80258;DHT22;69565;37.974;23.708;2023-10-08T13:05:44;26.60;39.10
80258;DHT22;69565;37.974;23.708;2023-10-08T13:08:10;26.60;39.00
80258;DHT22;69565;37.974;23.708;2023-10-08T13:10:39;26.60;39.00
80258;DHT22;69565;37.974;23.708;2023-10-08T13:13:10;26.60;39.10
80258;DHT22;69565;37.974;23.708;2023-10-08T13:15:36;26.60;39.00
80258;DHT22;69565;37.974;23.708;2023-10-08T13:18:02;26.60;39.00
80258;DHT22;69565;37.974;23.708;2023-10-08T13:20:31;26.60;39.10
80258;DHT22;69565;37.974;23.708;2023-10-08T13:23:00;26.60;39.10
80258;DHT22;69565;37.974;23.708;2023-10-08T13:25:25;26.60;39.10
80258;DHT22;69565;37.974;23.708;2023-10-08T13:27:52;26.60;39.10
80258;DHT22;69565;37.974;23.708;2023-10-08T13:30:20;26.60;39.10
80258;DHT22;69565;37.974;23.708;2023-10-08T13:32:46;26.60;39.20
80258;DHT22;69565;37.974;23.708;2023-10-08T13:35:12;26.70;39.20
80258;DHT22;69565;37.974;23.708;2023-10-08T13:37:38;26.70;39.20
80258;DHT22;69565;37.974;23.708;2023-10-08T13:40:05;26.70;39.30
80258;DHT22;69565;37.974;23.708;2023-10-08T13:42:31;26.60;39.20
80258;DHT22;69565;37.974;23.708;2023-10-08T13:44:57;26.70;39.20
80258;DHT22;69565;37.974;23.708;2023-10-08T13:47:33;26.70;39.30
80258;DHT22;69565;37.974;23.708;2023-10-08T13:49:59;26.60;39.20
80258;DHT22;69565;37.974;23.708;2023-10-08T13:52:25;26.60;39.20
80258;DHT22;69565;37.974;23.708;2023-10-08T13:54:52;26.70;39.30
80258;DHT22;69565;37.974;23.708;2023-10-08T13:57:19;26.70;39.30
80258;DHT22;69565;37.974;23.708;2023-10-08T13:59:48;26.60;39.30
80258;DHT22;69565;37.974;23.708;2023-10-08T14:02:17;26.70;39.30
80258;DHT22;69565;37.974;23.708;2023-10-08T14:04:47;26.70;39.40
80258;DHT22;69565;37.974;23.708;2023-10-08T14:07:16;26.70;39.40
80258;DHT22;69565;37.974;23.708;2023-10-08T14:09:44;26.60;39.40
80258;DHT22;69565;37.974;23.708;2023-10-08T14:12:13;26.60;39.40
80258;DHT22;69565;37.974;23.708;2023-10-08T14:14:41;26.60;39.50
80258;DHT22;69565;37.974;23.708;2023-10-08T14:17:09;26.60;39.50
80258;DHT22;69565;37.974;23.708;2023-10-08T14:19:41;26.70;39.50
80258;DHT22;69565;37.974;23.708;2023-10-08T14:22:17;26.60;39.50
80258;DHT22;69565;37.974;23.708;2023-10-08T14:24:45;26.60;39.50
80258;DHT22;69565;37.974;23.708;2023-10-08T14:27:25;26.60;39.50
80258;DHT22;69565;37.974;23.708;2023-10-08T14:29:57;26.60;39.50
80258;DHT22;69565;37.974;23.708;2023-10-08T14:32:27;26.60;39.50
80258;DHT22;69565;37.974;23.708;2023-10-08T14:34:54;26.60;39.50
80258;DHT22;69565;37.974;23.708;2023-10-08T14:37:20;26.60;39.50
80258;DHT22;69565;37.974;23.708;2023-10-08T14:40:05;26.60;39.50
80258;DHT22;69565;37.974;23.708;2023-10-08T14:42:49;26.60;40.60
80258;DHT22;69565;37.974;23.708;2023-10-08T14:45:27;26.60;39.60
80258;DHT22;69565;37.974;23.708;2023-10-08T14:47:57;26.60;39.70
80258;DHT22;69565;37.974;23.708;2023-10-08T14:50:24;26.60;39.70
80258;DHT22;69565;37.974;23.708;2023-10-08T14:52:53;26.60;39.80
80258;DHT22;69565;37.974;23.708;2023-10-08T14:55:21;26.60;39.80
80258;DHT22;69565;37.974;23.708;2023-10-08T14:57:48;26.60;39.80
80258;DHT22;69565;37.974;23.708;2023-10-08T15:00:18;26.60;39.80
80258;DHT22;69565;37.974;23.708;2023-10-08T15:02:54;26.60;39.80
80258;DHT22;69565;37.974;23.708;2023-10-08T15:05:21;26.60;39.80
80258;DHT22;69565;37.974;23.708;2023-10-08T15:07:49;26.50;40.90
80258;DHT22;69565;37.974;23.708;2023-10-08T15:10:15;26.60;39.80
80258;DHT22;69565;37.974;23.708;2023-10-08T15:12:43;26.60;39.80
80258;DHT22;69565;37.974;23.708;2023-10-08T15:15:09;26.60;39.80
80258;DHT22;69565;37.974;23.708;2023-10-08T15:17:45;26.50;39.70
80258;DHT22;69565;37.974;23.708;2023-10-08T15:20:13;26.60;39.80
80258;DHT22;69565;37.974;23.708;2023-10-08T15:22:43;26.60;39.90
80258;DHT22;69565;37.974;23.708;2023-10-08T15:25:10;26.60;39.90
80258;DHT22;69565;37.974;23.708;2023-10-08T15:27:40;26.50;39.80
80258;DHT22;69565;37.974;23.708;2023-10-08T15:30:10;26.60;39.90
80258;DHT22;69565;37.974;23.708;2023-10-08T15:32:43;26.60;40.90
80258;DHT22;69565;37.974;23.708;2023-10-08T15:35:10;26.50;39.80
80258;DHT22;69565;37.974;23.708;2023-10-08T15:37:40;26.50;39.90
80258;DHT22;69565;37.974;23.708;2023-10-08T15:40:07;26.50;39.80
80258;DHT22;69565;37.974;23.708;2023-10-08T15:42:34;26.50;39.90
80258;DHT22;69565;37.974;23.708;2023-10-08T15:45:04;26.50;39.90
80258;DHT22;69565;37.974;23.708;2023-10-08T15:47:32;26.50;39.90
80258;DHT22;69565;37.974;23.708;2023-10-08T15:49:58;26.50;40.00
80258;DHT22;69565;37.974;23.708;2023-10-08T15:52:25;26.50;40.00
80258;DHT22;69565;37.974;23.708;2023-10-08T15:54:51;26.50;40.00
80258;DHT22;69565;37.974;23.708;2023-10-08T15:57:16;26.50;40.00
80258;DHT22;69565;37.974;23.708;2023-10-08T15:59:42;26.50;40.00